sensor_id;sensor_type;location;lat;lon;timestamp;temperature;humidity
42877;DHT22;42341;40.498;72.818;2023-03-09T00:00:54;10.50;82.60
42877;DHT22;42341;40.498;72.818;2023-03-09T00:03:20;10.70;82.00
42877;DHT22;42341;40.498;72.818;2023-03-09T00:05:55;10.70;80.50
42877;DHT22;42341;40.498;72.818;2023-03-09T00:08:22;10.70;80.60
42877;DHT22;42341;40.498;72.818;2023-03-09T00:10:47;10.60;80.50
42877;DHT22;42341;40.498;72.818;2023-03-09T00:13:20;10.60;80.60
42877;DHT22;42341;40.498;72.818;2023-03-09T00:15:47;10.50;80.60
42877;DHT22;42341;40.498;72.818;2023-03-09T00:18:17;10.40;80.80
42877;DHT22;42341;40.498;72.818;2023-03-09T00:20:43;10.30;81.00
42877;DHT22;42341;40.498;72.818;2023-03-09T00:23:10;10.20;80.90
42877;DHT22;42341;40.498;72.818;2023-03-09T00:25:37;10.30;80.90
42877;DHT22;42341;40.498;72.818;2023-03-09T00:28:04;10.30;80.70
42877;DHT22;42341;40.498;72.818;2023-03-09T00:30:30;10.30;81.00
42877;DHT22;42341;40.498;72.818;2023-03-09T00:32:56;10.30;80.90
42877;DHT22;42341;40.498;72.818;2023-03-09T00:35:22;10.30;81.00
42877;DHT22;42341;40.498;72.818;2023-03-09T00:37:48;10.30;81.40
42877;DHT22;42341;40.498;72.818;2023-03-09T00:40:14;10.30;81.60
42877;DHT22;42341;40.498;72.818;2023-03-09T00:42:44;10.10;82.50
42877;DHT22;42341;40.498;72.818;2023-03-09T00:45:11;10.00;82.70
42877;DHT22;42341;40.498;72.818;2023-03-09T00:47:38;9.90;83.30
42877;DHT22;42341;40.498;72.818;2023-03-09T00:50:06;9.80;84.00
42877;DHT22;42341;40.498;72.818;2023-03-09T00:52:32;9.80;84.30
42877;DHT22;42341;40.498;72.818;2023-03-09T00:54:58;9.80;84.30
42877;DHT22;42341;40.498;72.818;2023-03-09T00:57:24;9.90;84.30
42877;DHT22;42341;40.498;72.818;2023-03-09T00:59:51;10.00;83.70
42877;DHT22;42341;40.498;72.818;2023-03-09T01:02:21;10.10;83.40
42877;DHT22;42341;40.498;72.818;2023-03-09T01:04:48;10.00;82.90
42877;DHT22;42341;40.498;72.818;2023-03-09T01:07:14;10.00;82.80
42877;DHT22;42341;40.498;72.818;2023-03-09T01:09:40;10.20;82.40
42877;DHT22;42341;40.498;72.818;2023-03-09T01:12:07;10.20;82.30
42877;DHT22;42341;40.498;72.818;2023-03-09T01:14:33;10.30;81.90
42877;DHT22;42341;40.498;72.818;2023-03-09T01:17:00;10.30;81.70
42877;DHT22;42341;40.498;72.818;2023-03-09T01:19:26;10.40;81.50
42877;DHT22;42341;40.498;72.818;2023-03-09T01:21:52;10.40;80.70
42877;DHT22;42341;40.498;72.818;2023-03-09T01:24:18;10.30;80.50
42877;DHT22;42341;40.498;72.818;2023-03-09T01:26:44;10.20;80.90
42877;DHT22;42341;40.498;72.818;2023-03-09T01:29:10;10.10;81.50
42877;DHT22;42341;40.498;72.818;2023-03-09T01:31:36;10.10;81.10
42877;DHT22;42341;40.498;72.818;2023-03-09T01:34:02;10.10;81.40
42877;DHT22;42341;40.498;72.818;2023-03-09T01:36:28;10.00;81.10
42877;DHT22;42341;40.498;72.818;2023-03-09T01:38:54;10.10;81.30
42877;DHT22;42341;40.498;72.818;2023-03-09T01:41:21;10.10;81.60
42877;DHT22;42341;40.498;72.818;2023-03-09T01:43:52;10.00;82.00
42877;DHT22;42341;40.498;72.818;2023-03-09T01:46:45;9.80;82.90
42877;DHT22;42341;40.498;72.818;2023-03-09T01:49:28;9.80;83.20
42877;DHT22;42341;40.498;72.818;2023-03-09T01:52:15;9.80;83.20
42877;DHT22;42341;40.498;72.818;2023-03-09T01:55:02;10.00;83.00
42877;DHT22;42341;40.498;72.818;2023-03-09T01:57:52;10.00;82.80
